Meteo Giornale » Osservazioni meteo Stati Uniti (USA) » Crossville
ore: 11:53 - Osservazioni Meteo Crossville
Lat. 35° 57' N Lon. 85° 5' W Alt. 573 metri s.l.m.
29 °C
Poco Nuvoloso
Temp. 24 Ore
19 °C
31 °C
Nord
9.3 Km/h
Dew point 20 °C
Umidità 58 %
Visibilità 10 Km
Il sole sorge alle ore 06:11
Il sole tramonta alle ore 19:09
| Data e Ora | Cielo e Fenomeni | T °C | DP °C | Um. % | Pres. hPa | Vis. km | Vento km/h | |
|---|---|---|---|---|---|---|---|---|
| Oggi h: 11:53 | Poco Nuvoloso | 29 | 20 | 58 | 1023 | 10 | N 9.3 | |
| Oggi h: 10:53 | Nuvoloso | 29 | 20 | 58 | 1024 | 10 | N 0 | |
| Oggi h: 09:53 | Sereno | 27 | 21 | 69 | 1024 | 10 | N 5.5 | |
| Oggi h: 08:53 | Sereno | 26 | 21 | 73 | 1023 | 10 | SO 7.4 | |
| Oggi h: 07:53 | Sereno | 24 | 20 | 78 | 1023 | 10 | N 0 | |
| Oggi h: 06:53 | Sereno | 19 | 18 | 93 | 1023 | 10 | N 0 | |
| Oggi h: 05:53 | Sereno | 19 | 18 | 93 | 1022 | 14 | N 0 | |
| Oggi h: 04:53 | Sereno | 19 | 18 | 93 | 1022 | 10 | N 0 | |
| Oggi h: 03:53 | Sereno | 19 | 19 | 100 | 1022 | 13 | N 0 | |
| Oggi h: 02:53 | Sereno | 20 | 19 | 93 | 1022 | 10 | N 0 | |
| Oggi h: 01:53 | Sereno | 20 | 19 | 93 | 1022 | 10 | N 0 | |
| Oggi h: 00:53 | Sereno | 20 | 19 | 93 | 1022 | 10 | N 0 | |
| Ieri h: 23:53 | Sereno | 21 | 19 | 88 | 1022 | 10 | N 0 | |
| Ieri h: 22:53 | Sereno | 22 | 19 | 83 | 1022 | 10 | N 0 | |
| Ieri h: 21:53 | Sereno | 22 | 20 | 88 | 1022 | 10 | N 0 | |
| Ieri h: 20:53 | Sereno | 24 | 20 | 78 | 1022 | 10 | N 0 | |
| Ieri h: 19:53 | Sereno | 24 | 21 | 83 | 1021 | 10 | N 0 | |
| Ieri h: 18:53 | Sereno | 26 | 21 | 73 | 1021 | 10 | N 0 | |
| Ieri h: 17:53 | Sereno | 29 | 19 | 54 | 1021 | 10 | N 0 | |
| Ieri h: 16:53 | Sereno | 29 | 18 | 51 | 1021 | 10 | O/SO 7.4 | |
| Ieri h: 15:53 | Poco Nuvoloso | 31 | 19 | 48 | 1021 | 10 | N 7.4 | |
| Ieri h: 14:53 | Nuvoloso | 30 | 18 | 48 | 1022 | 10 | N 9.3 | |
| Ieri h: 13:53 | Nuvoloso | 31 | 19 | 48 | 1023 | 10 | N 5.5 | |
| Ieri h: 12:53 | Sereno | 29 | 18 | 51 | 1023 | 10 | N 5.5 | |



